Marysville, Idaho
Current Conditions -  °F | °C
As of 6:56 AM on Sunday 25 Jan 2015 (Local Time) from KDIJ Reporting Station
Overcast Overcast  
Wind Chill: 27°   Ceiling: 500
Heat Index: 27°   Visibility: 8mi
Dew Point: 27°   Wind: 0mph
Humidity: 100%   Direction: NA
Pressure: 30.42"   Gusts: NA
Location:  44.0126°N, 111.37°W
Report Text: KDIJ 251356Z AUTO 00000KT 8SM OVC005 M03/M03 A3042 RMK AO2 T10271027 SLP316
Loading
Personal Weather Stations






























Interactive Weather Map New forecast layout! Learn more

10-Day Weather Forecast

Advertisements
Track Severe Weather on mobile